sensor_id;sensor_type;location;lat;lon;timestamp;temperature;humidity
24676;DHT22;12799;53.690;10.114;2022-09-03T00:01:57;15.90;99.90
24676;DHT22;12799;53.690;10.114;2022-09-03T00:04:04;15.80;99.90
24676;DHT22;12799;53.690;10.114;2022-09-03T00:06:13;15.80;99.90
24676;DHT22;12799;53.690;10.114;2022-09-03T00:08:20;15.80;99.90
24676;DHT22;12799;53.690;10.114;2022-09-03T00:10:28;15.90;99.90
24676;DHT22;12799;53.690;10.114;2022-09-03T00:12:36;15.80;99.90
24676;DHT22;12799;53.690;10.114;2022-09-03T00:14:43;15.80;99.90
24676;DHT22;12799;53.690;10.114;2022-09-03T00:16:49;15.70;99.90
24676;DHT22;12799;53.690;10.114;2022-09-03T00:18:56;15.70;99.90
24676;DHT22;12799;53.690;10.114;2022-09-03T00:21:03;15.70;99.90
24676;DHT22;12799;53.690;10.114;2022-09-03T00:23:11;15.70;99.90
24676;DHT22;12799;53.690;10.114;2022-09-03T00:25:23;15.60;99.90
24676;DHT22;12799;53.690;10.114;2022-09-03T00:27:28;15.60;99.90
24676;DHT22;12799;53.690;10.114;2022-09-03T00:29:36;15.50;99.90
24676;DHT22;12799;53.690;10.114;2022-09-03T00:31:43;15.50;99.90
24676;DHT22;12799;53.690;10.114;2022-09-03T00:33:48;15.50;99.90
24676;DHT22;12799;53.690;10.114;2022-09-03T00:36:04;15.50;99.90
24676;DHT22;12799;53.690;10.114;2022-09-03T00:38:07;15.50;99.90
24676;DHT22;12799;53.690;10.114;2022-09-03T00:40:18;15.50;99.90
24676;DHT22;12799;53.690;10.114;2022-09-03T00:42:37;15.40;99.90
24676;DHT22;12799;53.690;10.114;2022-09-03T00:44:53;15.40;99.90
24676;DHT22;12799;53.690;10.114;2022-09-03T00:47:01;15.40;99.90
24676;DHT22;12799;53.690;10.114;2022-09-03T00:49:25;15.40;99.90
24676;DHT22;12799;53.690;10.114;2022-09-03T00:51:35;15.30;99.90
24676;DHT22;12799;53.690;10.114;2022-09-03T00:53:48;15.30;99.90
24676;DHT22;12799;53.690;10.114;2022-09-03T00:56:01;15.30;99.90
24676;DHT22;12799;53.690;10.114;2022-09-03T00:58:26;15.30;99.90
24676;DHT22;12799;53.690;10.114;2022-09-03T01:00:30;15.20;99.90
24676;DHT22;12799;53.690;10.114;2022-09-03T01:02:40;15.20;99.90
24676;DHT22;12799;53.690;10.114;2022-09-03T01:04:54;15.20;99.90
24676;DHT22;12799;53.690;10.114;2022-09-03T01:07:06;15.20;99.90
24676;DHT22;12799;53.690;10.114;2022-09-03T01:09:24;15.10;99.90
24676;DHT22;12799;53.690;10.114;2022-09-03T01:11:35;15.10;99.90
24676;DHT22;12799;53.690;10.114;2022-09-03T01:13:45;15.10;99.90
24676;DHT22;12799;53.690;10.114;2022-09-03T01:15:56;15.10;99.90
24676;DHT22;12799;53.690;10.114;2022-09-03T01:18:14;15.10;99.90
24676;DHT22;12799;53.690;10.114;2022-09-03T01:20:31;15.10;99.90
24676;DHT22;12799;53.690;10.114;2022-09-03T01:23:03;15.10;99.90
24676;DHT22;12799;53.690;10.114;2022-09-03T01:25:15;15.10;99.90
24676;DHT22;12799;53.690;10.114;2022-09-03T01:27:31;15.20;99.90
24676;DHT22;12799;53.690;10.114;2022-09-03T01:29:44;15.20;99.90
24676;DHT22;12799;53.690;10.114;2022-09-03T01:31:57;15.20;99.90
24676;DHT22;12799;53.690;10.114;2022-09-03T01:34:11;15.20;99.90
24676;DHT22;12799;53.690;10.114;2022-09-03T01:36:18;15.20;99.90
24676;DHT22;12799;53.690;10.114;2022-09-03T01:38:28;15.20;99.90
24676;DHT22;12799;53.690;10.114;2022-09-03T01:40:41;15.30;99.90
24676;DHT22;12799;53.690;10.114;2022-09-03T01:42:57;15.30;99.90
24676;DHT22;12799;53.690;10.114;2022-09-03T01:45:34;15.30;99.90
24676;DHT22;12799;53.690;10.114;2022-09-03T01:47:48;15.30;99.90
24676;DHT22;12799;53.690;10.114;2022-09-03T01:49:57;15.30;99.90
24676;DHT22;12799;53.690;10.114;2022-09-03T01:52:10;15.30;99.90
24676;DHT22;12799;53.690;10.114;2022-09-03T01:54:29;15.20;99.90
24676;DHT22;12799;53.690;10.114;2022-09-03T01:56:49;15.20;99.90
24676;DHT22;12799;53.690;10.114;2022-09-03T01:58:59;15.30;99.90
24676;DHT22;12799;53.690;10.114;2022-09-03T02:01:08;15.20;99.90
24676;DHT22;12799;53.690;10.114;2022-09-03T02:03:11;15.20;99.90
24676;DHT22;12799;53.690;10.114;2022-09-03T02:05:16;15.20;99.90
24676;DHT22;12799;53.690;10.114;2022-09-03T02:07:18;15.20;99.90
24676;DHT22;12799;53.690;10.114;2022-09-03T02:09:21;15.10;99.90
24676;DHT22;12799;53.690;10.114;2022-09-03T02:11:23;15.10;99.90
24676;DHT22;12799;53.690;10.114;2022-09-03T02:13:28;15.10;99.90
24676;DHT22;12799;53.690;10.114;2022-09-03T02:15:32;15.10;99.90
24676;DHT22;12799;53.690;10.114;2022-09-03T02:17:39;15.10;99.90
24676;DHT22;12799;53.690;10.114;2022-09-03T02:19:42;14.90;99.90
24676;DHT22;12799;53.690;10.114;2022-09-03T02:21:48;14.90;99.90
24676;DHT22;12799;53.690;10.114;2022-09-03T02:23:51;14.90;99.90
24676;DHT22;12799;53.690;10.114;2022-09-03T02:25:56;14.90;99.90
24676;DHT22;12799;53.690;10.114;2022-09-03T02:27:58;14.90;99.90
24676;DHT22;12799;53.690;10.114;2022-09-03T02:30:01;14.90;99.90
24676;DHT22;12799;53.690;10.114;2022-09-03T02:32:03;14.80;99.90
24676;DHT22;12799;53.690;10.114;2022-09-03T02:34:07;14.70;99.90
24676;DHT22;12799;53.690;10.114;2022-09-03T02:36:11;14.70;99.90
24676;DHT22;12799;53.690;10.114;2022-09-03T02:38:15;14.70;99.90
24676;DHT22;12799;53.690;10.114;2022-09-03T02:40:17;14.80;99.90
24676;DHT22;12799;53.690;10.114;2022-09-03T02:42:19;14.80;99.90
24676;DHT22;12799;53.690;10.114;2022-09-03T02:44:25;14.80;99.90
24676;DHT22;12799;53.690;10.114;2022-09-03T02:46:33;14.70;99.90
24676;DHT22;12799;53.690;10.114;2022-09-03T02:48:36;14.70;99.90
24676;DHT22;12799;53.690;10.114;2022-09-03T02:50:41;14.70;99.90
24676;DHT22;12799;53.690;10.114;2022-09-03T02:52:43;14.60;99.90
24676;DHT22;12799;53.690;10.114;2022-09-03T02:54:45;14.70;99.90
24676;DHT22;12799;53.690;10.114;2022-09-03T02:56:47;14.60;99.90
24676;DHT22;12799;53.690;10.114;2022-09-03T02:58:49;14.60;99.90
24676;DHT22;12799;53.690;10.114;2022-09-03T03:00:51;14.60;99.90
24676;DHT22;12799;53.690;10.114;2022-09-03T03:02:54;14.60;99.90
24676;DHT22;12799;53.690;10.114;2022-09-03T03:04:56;14.50;99.90
24676;DHT22;12799;53.690;10.114;2022-09-03T03:06:59;14.50;99.90
24676;DHT22;12799;53.690;10.114;2022-09-03T03:09:01;14.50;99.90
24676;DHT22;12799;53.690;10.114;2022-09-03T03:11:06;14.50;99.90
24676;DHT22;12799;53.690;10.114;2022-09-03T03:13:08;14.50;99.90
24676;DHT22;12799;53.690;10.114;2022-09-03T03:15:10;14.50;99.90
24676;DHT22;12799;53.690;10.114;2022-09-03T03:17:12;14.50;99.90
24676;DHT22;12799;53.690;10.114;2022-09-03T03:19:14;14.50;99.90
24676;DHT22;12799;53.690;10.114;2022-09-03T03:21:17;14.50;99.90
24676;DHT22;12799;53.690;10.114;2022-09-03T03:23:20;14.40;99.90
24676;DHT22;12799;53.690;10.114;2022-09-03T03:25:22;14.40;99.90
24676;DHT22;12799;53.690;10.114;2022-09-03T03:27:24;14.40;99.90
24676;DHT22;12799;53.690;10.114;2022-09-03T03:29:27;14.30;99.90
24676;DHT22;12799;53.690;10.114;2022-09-03T03:31:29;14.40;99.90
24676;DHT22;12799;53.690;10.114;2022-09-03T03:33:31;14.30;99.90
24676;DHT22;12799;53.690;10.114;2022-09-03T03:35:34;14.30;99.90
24676;DHT22;12799;53.690;10.114;2022-09-03T03:37:36;14.40;99.90
24676;DHT22;12799;53.690;10.114;2022-09-03T03:39:40;14.30;99.90
24676;DHT22;12799;53.690;10.114;2022-09-03T03:41:42;14.30;99.90
24676;DHT22;12799;53.690;10.114;2022-09-03T03:43:44;14.30;99.90
24676;DHT22;12799;53.690;10.114;2022-09-03T03:45:55;14.20;99.90
24676;DHT22;12799;53.690;10.114;2022-09-03T03:47:57;14.20;99.90
24676;DHT22;12799;53.690;10.114;2022-09-03T03:49:59;14.20;99.90
24676;DHT22;12799;53.690;10.114;2022-09-03T03:52:02;14.10;99.90
24676;DHT22;12799;53.690;10.114;2022-09-03T03:54:04;14.20;99.90
24676;DHT22;12799;53.690;10.114;2022-09-03T03:56:09;14.10;99.90
24676;DHT22;12799;53.690;10.114;2022-09-03T03:58:11;14.10;99.90
24676;DHT22;12799;53.690;10.114;2022-09-03T04:00:14;14.10;99.90
24676;DHT22;12799;53.690;10.114;2022-09-03T04:02:17;14.00;99.90
24676;DHT22;12799;53.690;10.114;2022-09-03T04:04:19;14.00;99.90
24676;DHT22;12799;53.690;10.114;2022-09-03T04:06:21;14.00;99.90
24676;DHT22;12799;53.690;10.114;2022-09-03T04:08:23;14.00;99.90
24676;DHT22;12799;53.690;10.114;2022-09-03T04:10:25;14.00;99.90
24676;DHT22;12799;53.690;10.114;2022-09-03T04:12:28;13.90;99.90
24676;DHT22;12799;53.690;10.114;2022-09-03T04:14:30;13.90;99.90
24676;DHT22;12799;53.690;10.114;2022-09-03T04:16:32;13.90;99.90
24676;DHT22;12799;53.690;10.114;2022-09-03T04:18:34;13.90;99.90
24676;DHT22;12799;53.690;10.114;2022-09-03T04:20:36;13.90;99.90
24676;DHT22;12799;53.690;10.114;2022-09-03T04:22:38;13.80;99.90
24676;DHT22;12799;53.690;10.114;2022-09-03T04:24:40;13.70;99.90
24676;DHT22;12799;53.690;10.114;2022-09-03T04:26:42;13.70;99.90
24676;DHT22;12799;53.690;10.114;2022-09-03T04:28:45;13.70;99.90
24676;DHT22;12799;53.690;10.114;2022-09-03T04:30:48;13.70;99.90
24676;DHT22;12799;53.690;10.114;2022-09-03T04:32:50;13.70;99.90
24676;DHT22;12799;53.690;10.114;2022-09-03T04:34:54;13.70;99.90
24676;DHT22;12799;53.690;10.114;2022-09-03T04:36:56;13.60;99.90
24676;DHT22;12799;53.690;10.114;2022-09-03T04:38:59;13.70;99.90
24676;DHT22;12799;53.690;10.114;2022-09-03T04:41:03;13.60;99.90
24676;DHT22;12799;53.690;10.114;2022-09-03T04:43:05;13.60;99.90
24676;DHT22;12799;53.690;10.114;2022-09-03T04:45:09;13.60;99.90
24676;DHT22;12799;53.690;10.114;2022-09-03T04:47:15;13.60;99.90
24676;DHT22;12799;53.690;10.114;2022-09-03T04:49:17;13.50;99.90
24676;DHT22;12799;53.690;10.114;2022-09-03T04:51:21;13.60;99.90
24676;DHT22;12799;53.690;10.114;2022-09-03T04:53:24;13.60;99.90
24676;DHT22;12799;53.690;10.114;2022-09-03T04:55:26;13.60;99.90
24676;DHT22;12799;53.690;10.114;2022-09-03T04:57:28;13.50;99.90
24676;DHT22;12799;53.690;10.114;2022-09-03T04:59:33;13.60;99.90
24676;DHT22;12799;53.690;10.114;2022-09-03T05:01:38;13.50;99.90
24676;DHT22;12799;53.690;10.114;2022-09-03T05:03:40;13.60;99.90
24676;DHT22;12799;53.690;10.114;2022-09-03T05:05:44;13.60;99.90
24676;DHT22;12799;53.690;10.114;2022-09-03T05:07:51;13.60;99.90
24676;DHT22;12799;53.690;10.114;2022-09-03T05:09:53;13.60;99.90
24676;DHT22;12799;53.690;10.114;2022-09-03T05:11:58;13.60;99.90
24676;DHT22;12799;53.690;10.114;2022-09-03T05:14:00;13.60;99.90
24676;DHT22;12799;53.690;10.114;2022-09-03T05:16:03;13.60;99.90
24676;DHT22;12799;53.690;10.114;2022-09-03T05:18:07;13.60;99.90
24676;DHT22;12799;53.690;10.114;2022-09-03T05:20:09;13.60;99.90
24676;DHT22;12799;53.690;10.114;2022-09-03T05:22:11;13.60;99.90
24676;DHT22;12799;53.690;10.114;2022-09-03T05:24:15;13.60;99.90
24676;DHT22;12799;53.690;10.114;2022-09-03T05:26:21;13.60;99.90
24676;DHT22;12799;53.690;10.114;2022-09-03T05:28:23;13.60;99.90
24676;DHT22;12799;53.690;10.114;2022-09-03T05:30:27;13.70;99.90
24676;DHT22;12799;53.690;10.114;2022-09-03T05:32:30;13.60;99.90
24676;DHT22;12799;53.690;10.114;2022-09-03T05:34:33;13.70;99.90
24676;DHT22;12799;53.690;10.114;2022-09-03T05:36:36;13.70;99.90
24676;DHT22;12799;53.690;10.114;2022-09-03T05:38:39;13.70;99.90
24676;DHT22;12799;53.690;10.114;2022-09-03T05:40:41;13.60;99.90
24676;DHT22;12799;53.690;10.114;2022-09-03T05:42:43;13.60;99.90
24676;DHT22;12799;53.690;10.114;2022-09-03T05:44:45;13.60;99.90
24676;DHT22;12799;53.690;10.114;2022-09-03T05:46:49;13.60;99.90
24676;DHT22;12799;53.690;10.114;2022-09-03T05:48:53;13.50;99.90
24676;DHT22;12799;53.690;10.114;2022-09-03T05:51:00;13.50;99.90
24676;DHT22;12799;53.690;10.114;2022-09-03T05:53:02;13.50;99.90
24676;DHT22;12799;53.690;10.114;2022-09-03T05:55:04;13.60;99.90
24676;DHT22;12799;53.690;10.114;2022-09-03T05:57:06;13.50;99.90
24676;DHT22;12799;53.690;10.114;2022-09-03T05:59:09;13.50;99.90
24676;DHT22;12799;53.690;10.114;2022-09-03T06:01:11;13.60;99.90
24676;DHT22;12799;53.690;10.114;2022-09-03T06:03:14;13.60;99.90
24676;DHT22;12799;53.690;10.114;2022-09-03T06:05:16;13.60;99.90
24676;DHT22;12799;53.690;10.114;2022-09-03T06:07:20;13.60;99.90
24676;DHT22;12799;53.690;10.114;2022-09-03T06:09:22;13.60;99.90
24676;DHT22;12799;53.690;10.114;2022-09-03T06:11:24;13.70;99.90
24676;DHT22;12799;53.690;10.114;2022-09-03T06:13:27;13.70;99.90
24676;DHT22;12799;53.690;10.114;2022-09-03T06:15:30;13.70;99.90
24676;DHT22;12799;53.690;10.114;2022-09-03T06:17:32;13.70;99.90
24676;DHT22;12799;53.690;10.114;2022-09-03T06:19:34;13.80;99.90
24676;DHT22;12799;53.690;10.114;2022-09-03T06:21:36;13.80;99.90
24676;DHT22;12799;53.690;10.114;2022-09-03T06:23:48;13.80;99.90
24676;DHT22;12799;53.690;10.114;2022-09-03T06:25:59;13.90;99.90
24676;DHT22;12799;53.690;10.114;2022-09-03T06:28:02;13.90;99.90
24676;DHT22;12799;53.690;10.114;2022-09-03T06:30:04;14.00;99.90
24676;DHT22;12799;53.690;10.114;2022-09-03T06:32:06;14.00;99.90
24676;DHT22;12799;53.690;10.114;2022-09-03T06:34:08;14.10;99.90
24676;DHT22;12799;53.690;10.114;2022-09-03T06:36:13;14.10;99.90
24676;DHT22;12799;53.690;10.114;2022-09-03T06:38:15;14.10;99.90
24676;DHT22;12799;53.690;10.114;2022-09-03T06:40:20;14.20;99.90
24676;DHT22;12799;53.690;10.114;2022-09-03T06:42:23;14.20;99.90
24676;DHT22;12799;53.690;10.114;2022-09-03T06:44:25;14.30;99.90
24676;DHT22;12799;53.690;10.114;2022-09-03T06:46:27;14.30;99.90
24676;DHT22;12799;53.690;10.114;2022-09-03T06:48:30;14.30;99.90
24676;DHT22;12799;53.690;10.114;2022-09-03T06:50:33;14.40;99.90
24676;DHT22;12799;53.690;10.114;2022-09-03T06:52:35;14.50;99.90
24676;DHT22;12799;53.690;10.114;2022-09-03T06:54:37;14.50;99.90
24676;DHT22;12799;53.690;10.114;2022-09-03T06:56:41;14.60;99.90
24676;DHT22;12799;53.690;10.114;2022-09-03T06:58:45;14.60;99.90
24676;DHT22;12799;53.690;10.114;2022-09-03T07:00:48;14.70;99.90
24676;DHT22;12799;53.690;10.114;2022-09-03T07:02:55;14.70;99.90
24676;DHT22;12799;53.690;10.114;2022-09-03T07:04:59;14.70;99.90
24676;DHT22;12799;53.690;10.114;2022-09-03T07:07:01;14.80;99.90
24676;DHT22;12799;53.690;10.114;2022-09-03T07:09:03;14.90;99.90
24676;DHT22;12799;53.690;10.114;2022-09-03T07:11:08;15.00;99.90
24676;DHT22;12799;53.690;10.114;2022-09-03T07:13:12;15.00;99.90
24676;DHT22;12799;53.690;10.114;2022-09-03T07:15:14;15.10;99.90
24676;DHT22;12799;53.690;10.114;2022-09-03T07:17:16;15.10;99.90
24676;DHT22;12799;53.690;10.114;2022-09-03T07:19:18;15.20;99.90
24676;DHT22;12799;53.690;10.114;2022-09-03T07:21:22;15.30;99.90
24676;DHT22;12799;53.690;10.114;2022-09-03T07:23:24;15.30;99.90
24676;DHT22;12799;53.690;10.114;2022-09-03T07:25:26;15.40;99.90
24676;DHT22;12799;53.690;10.114;2022-09-03T07:27:30;15.40;99.90
24676;DHT22;12799;53.690;10.114;2022-09-03T07:29:34;15.50;99.90
24676;DHT22;12799;53.690;10.114;2022-09-03T07:31:39;15.60;99.90
24676;DHT22;12799;53.690;10.114;2022-09-03T07:33:42;15.60;99.90
24676;DHT22;12799;53.690;10.114;2022-09-03T07:35:44;15.70;99.90
24676;DHT22;12799;53.690;10.114;2022-09-03T07:37:46;15.80;99.90
24676;DHT22;12799;53.690;10.114;2022-09-03T07:39:48;15.80;99.90
24676;DHT22;12799;53.690;10.114;2022-09-03T07:41:49;15.90;99.90
24676;DHT22;12799;53.690;10.114;2022-09-03T07:43:52;16.00;99.90
24676;DHT22;12799;53.690;10.114;2022-09-03T07:45:56;16.10;99.90
24676;DHT22;12799;53.690;10.114;2022-09-03T07:47:58;16.10;99.90
24676;DHT22;12799;53.690;10.114;2022-09-03T07:50:00;16.20;99.90
24676;DHT22;12799;53.690;10.114;2022-09-03T07:52:02;16.30;99.90
24676;DHT22;12799;53.690;10.114;2022-09-03T07:54:06;16.40;99.90
24676;DHT22;12799;53.690;10.114;2022-09-03T07:56:10;16.40;99.90
24676;DHT22;12799;53.690;10.114;2022-09-03T07:58:12;16.50;99.90
24676;DHT22;12799;53.690;10.114;2022-09-03T08:00:15;16.60;99.90
24676;DHT22;12799;53.690;10.114;2022-09-03T08:02:18;16.70;99.90
24676;DHT22;12799;53.690;10.114;2022-09-03T08:04:21;16.80;99.90
24676;DHT22;12799;53.690;10.114;2022-09-03T08:06:25;16.90;99.90
24676;DHT22;12799;53.690;10.114;2022-09-03T08:08:27;17.00;99.90
24676;DHT22;12799;53.690;10.114;2022-09-03T08:10:29;17.20;99.90
24676;DHT22;12799;53.690;10.114;2022-09-03T08:12:32;17.30;99.90
24676;DHT22;12799;53.690;10.114;2022-09-03T08:14:34;17.40;99.90
24676;DHT22;12799;53.690;10.114;2022-09-03T08:16:37;17.50;99.90
24676;DHT22;12799;53.690;10.114;2022-09-03T08:18:40;17.70;99.90
24676;DHT22;12799;53.690;10.114;2022-09-03T08:20:43;17.80;99.90
24676;DHT22;12799;53.690;10.114;2022-09-03T08:22:44;18.00;99.90
24676;DHT22;12799;53.690;10.114;2022-09-03T08:24:46;18.10;99.90
24676;DHT22;12799;53.690;10.114;2022-09-03T08:26:49;18.20;99.90
24676;DHT22;12799;53.690;10.114;2022-09-03T08:28:51;18.40;99.90
24676;DHT22;12799;53.690;10.114;2022-09-03T08:30:53;18.50;99.90
24676;DHT22;12799;53.690;10.114;2022-09-03T08:32:55;18.70;99.90
24676;DHT22;12799;53.690;10.114;2022-09-03T08:34:59;18.80;99.90
24676;DHT22;12799;53.690;10.114;2022-09-03T08:37:01;19.00;99.90
24676;DHT22;12799;53.690;10.114;2022-09-03T08:39:04;19.10;99.90
24676;DHT22;12799;53.690;10.114;2022-09-03T08:41:11;19.20;99.90
24676;DHT22;12799;53.690;10.114;2022-09-03T08:43:16;19.40;99.90
24676;DHT22;12799;53.690;10.114;2022-09-03T08:45:20;19.50;99.90
24676;DHT22;12799;53.690;10.114;2022-09-03T08:47:25;19.60;99.90
24676;DHT22;12799;53.690;10.114;2022-09-03T08:49:33;19.80;99.90
24676;DHT22;12799;53.690;10.114;2022-09-03T08:51:42;19.90;99.90
24676;DHT22;12799;53.690;10.114;2022-09-03T08:53:48;20.10;99.90
24676;DHT22;12799;53.690;10.114;2022-09-03T08:55:57;20.30;99.90
24676;DHT22;12799;53.690;10.114;2022-09-03T08:58:03;20.50;99.90
24676;DHT22;12799;53.690;10.114;2022-09-03T09:00:07;20.60;99.90
24676;DHT22;12799;53.690;10.114;2022-09-03T09:02:18;20.80;99.90
24676;DHT22;12799;53.690;10.114;2022-09-03T09:04:34;21.00;99.90
24676;DHT22;12799;53.690;10.114;2022-09-03T09:06:45;21.10;99.90
24676;DHT22;12799;53.690;10.114;2022-09-03T09:08:58;21.30;99.90
24676;DHT22;12799;53.690;10.114;2022-09-03T09:11:10;21.30;99.90
24676;DHT22;12799;53.690;10.114;2022-09-03T09:13:19;21.30;99.90
24676;DHT22;12799;53.690;10.114;2022-09-03T09:15:31;21.20;99.90
24676;DHT22;12799;53.690;10.114;2022-09-03T09:17:55;21.20;99.90
24676;DHT22;12799;53.690;10.114;2022-09-03T09:20:05;21.40;99.90
24676;DHT22;12799;53.690;10.114;2022-09-03T09:22:18;21.50;99.90
24676;DHT22;12799;53.690;10.114;2022-09-03T09:24:25;21.60;99.90
24676;DHT22;12799;53.690;10.114;2022-09-03T09:26:29;21.70;99.90
24676;DHT22;12799;53.690;10.114;2022-09-03T09:28:34;21.80;99.90
24676;DHT22;12799;53.690;10.114;2022-09-03T09:30:37;21.70;99.90
24676;DHT22;12799;53.690;10.114;2022-09-03T09:32:39;21.60;99.90
24676;DHT22;12799;53.690;10.114;2022-09-03T09:34:41;21.60;99.90
24676;DHT22;12799;53.690;10.114;2022-09-03T09:36:47;21.40;99.90
24676;DHT22;12799;53.690;10.114;2022-09-03T09:38:51;21.40;99.90
24676;DHT22;12799;53.690;10.114;2022-09-03T09:40:53;21.30;99.90
24676;DHT22;12799;53.690;10.114;2022-09-03T09:43:08;21.20;99.90
24676;DHT22;12799;53.690;10.114;2022-09-03T09:45:10;21.20;99.90
24676;DHT22;12799;53.690;10.114;2022-09-03T09:47:20;21.20;99.90
24676;DHT22;12799;53.690;10.114;2022-09-03T09:49:29;21.10;99.90
24676;DHT22;12799;53.690;10.114;2022-09-03T09:51:32;21.10;99.90
24676;DHT22;12799;53.690;10.114;2022-09-03T09:53:34;21.20;99.90
24676;DHT22;12799;53.690;10.114;2022-09-03T09:55:48;21.30;99.90
24676;DHT22;12799;53.690;10.114;2022-09-03T09:57:52;21.60;99.90
24676;DHT22;12799;53.690;10.114;2022-09-03T10:00:02;21.70;99.90
24676;DHT22;12799;53.690;10.114;2022-09-03T10:02:10;21.90;99.90
24676;DHT22;12799;53.690;10.114;2022-09-03T10:04:21;22.10;99.90
24676;DHT22;12799;53.690;10.114;2022-09-03T10:06:24;22.30;99.90
24676;DHT22;12799;53.690;10.114;2022-09-03T10:08:44;22.60;99.90
24676;DHT22;12799;53.690;10.114;2022-09-03T10:10:49;22.90;99.90
24676;DHT22;12799;53.690;10.114;2022-09-03T10:12:55;23.10;99.90
24676;DHT22;12799;53.690;10.114;2022-09-03T10:15:14;23.20;99.90
24676;DHT22;12799;53.690;10.114;2022-09-03T10:17:25;23.50;99.90
24676;DHT22;12799;53.690;10.114;2022-09-03T10:19:35;23.80;99.90
24676;DHT22;12799;53.690;10.114;2022-09-03T10:21:44;24.10;99.90
24676;DHT22;12799;53.690;10.114;2022-09-03T10:23:53;24.40;99.90
24676;DHT22;12799;53.690;10.114;2022-09-03T10:26:02;24.40;99.90
24676;DHT22;12799;53.690;10.114;2022-09-03T10:28:08;24.50;99.90
24676;DHT22;12799;53.690;10.114;2022-09-03T10:30:11;24.60;99.90
24676;DHT22;12799;53.690;10.114;2022-09-03T10:32:21;24.80;99.90
24676;DHT22;12799;53.690;10.114;2022-09-03T10:34:31;25.00;99.90
24676;DHT22;12799;53.690;10.114;2022-09-03T10:36:41;25.10;99.90
24676;DHT22;12799;53.690;10.114;2022-09-03T10:38:47;25.40;99.90
24676;DHT22;12799;53.690;10.114;2022-09-03T10:40:57;25.50;99.90
24676;DHT22;12799;53.690;10.114;2022-09-03T10:43:31;25.60;99.90
24676;DHT22;12799;53.690;10.114;2022-09-03T10:45:40;25.50;99.90
24676;DHT22;12799;53.690;10.114;2022-09-03T10:48:03;25.50;99.90
24676;DHT22;12799;53.690;10.114;2022-09-03T10:50:13;25.60;99.90
24676;DHT22;12799;53.690;10.114;2022-09-03T10:52:23;25.50;99.90
24676;DHT22;12799;53.690;10.114;2022-09-03T10:54:37;25.40;99.90
24676;DHT22;12799;53.690;10.114;2022-09-03T10:56:53;25.50;99.90
24676;DHT22;12799;53.690;10.114;2022-09-03T10:59:13;25.60;99.90
24676;DHT22;12799;53.690;10.114;2022-09-03T11:01:25;25.50;99.90
24676;DHT22;12799;53.690;10.114;2022-09-03T11:03:38;25.70;99.90
24676;DHT22;12799;53.690;10.114;2022-09-03T11:05:56;25.90;99.90
24676;DHT22;12799;53.690;10.114;2022-09-03T11:08:04;25.90;99.90
24676;DHT22;12799;53.690;10.114;2022-09-03T11:10:15;25.90;99.90
24676;DHT22;12799;53.690;10.114;2022-09-03T11:12:22;25.80;99.90
24676;DHT22;12799;53.690;10.114;2022-09-03T11:14:33;26.00;99.90
24676;DHT22;12799;53.690;10.114;2022-09-03T11:16:40;25.80;99.90
24676;DHT22;12799;53.690;10.114;2022-09-03T11:18:48;25.60;99.90
24676;DHT22;12799;53.690;10.114;2022-09-03T11:20:53;25.50;99.90
24676;DHT22;12799;53.690;10.114;2022-09-03T11:22:58;25.70;99.90
24676;DHT22;12799;53.690;10.114;2022-09-03T11:25:02;25.60;99.90
24676;DHT22;12799;53.690;10.114;2022-09-03T11:27:19;25.80;99.90
24676;DHT22;12799;53.690;10.114;2022-09-03T11:29:31;26.00;99.90
24676;DHT22;12799;53.690;10.114;2022-09-03T11:31:45;26.20;99.90
24676;DHT22;12799;53.690;10.114;2022-09-03T11:33:53;26.40;99.90
24676;DHT22;12799;53.690;10.114;2022-09-03T11:35:58;26.60;99.90
24676;DHT22;12799;53.690;10.114;2022-09-03T11:38:03;26.50;99.90
24676;DHT22;12799;53.690;10.114;2022-09-03T11:40:12;26.10;99.70
24676;DHT22;12799;53.690;10.114;2022-09-03T11:42:27;26.30;99.90
24676;DHT22;12799;53.690;10.114;2022-09-03T11:44:36;26.30;99.90
24676;DHT22;12799;53.690;10.114;2022-09-03T11:46:39;26.40;99.90
24676;DHT22;12799;53.690;10.114;2022-09-03T11:48:42;26.50;99.90
24676;DHT22;12799;53.690;10.114;2022-09-03T11:50:52;26.60;99.90
24676;DHT22;12799;53.690;10.114;2022-09-03T11:53:07;26.50;99.90
24676;DHT22;12799;53.690;10.114;2022-09-03T11:55:09;26.20;99.90
24676;DHT22;12799;53.690;10.114;2022-09-03T11:57:12;25.70;99.90
24676;DHT22;12799;53.690;10.114;2022-09-03T11:59:17;25.80;99.90
24676;DHT22;12799;53.690;10.114;2022-09-03T12:01:21;25.80;99.90
24676;DHT22;12799;53.690;10.114;2022-09-03T12:03:26;25.80;99.90
24676;DHT22;12799;53.690;10.114;2022-09-03T12:05:39;25.80;99.90
24676;DHT22;12799;53.690;10.114;2022-09-03T12:07:55;26.00;99.90
24676;DHT22;12799;53.690;10.114;2022-09-03T12:10:15;26.00;99.90
24676;DHT22;12799;53.690;10.114;2022-09-03T12:12:35;26.10;99.90
24676;DHT22;12799;53.690;10.114;2022-09-03T12:14:47;26.20;99.90
24676;DHT22;12799;53.690;10.114;2022-09-03T12:19:28;26.60;99.90
24676;DHT22;12799;53.690;10.114;2022-09-03T12:21:37;26.60;99.60
24676;DHT22;12799;53.690;10.114;2022-09-03T12:23:41;27.00;99.90
24676;DHT22;12799;53.690;10.114;2022-09-03T12:25:44;27.20;99.90
24676;DHT22;12799;53.690;10.114;2022-09-03T12:27:47;27.10;99.60
24676;DHT22;12799;53.690;10.114;2022-09-03T12:29:51;27.20;99.90
24676;DHT22;12799;53.690;10.114;2022-09-03T12:32:10;27.20;99.70
24676;DHT22;12799;53.690;10.114;2022-09-03T12:34:14;27.40;99.70
24676;DHT22;12799;53.690;10.114;2022-09-03T12:36:17;27.20;98.70
24676;DHT22;12799;53.690;10.114;2022-09-03T12:38:22;27.20;99.20
24676;DHT22;12799;53.690;10.114;2022-09-03T12:40:27;27.10;99.20
24676;DHT22;12799;53.690;10.114;2022-09-03T12:42:30;26.80;99.00
24676;DHT22;12799;53.690;10.114;2022-09-03T12:44:40;26.70;99.80
24676;DHT22;12799;53.690;10.114;2022-09-03T12:46:42;26.80;99.20
24676;DHT22;12799;53.690;10.114;2022-09-03T12:48:52;26.80;97.30
24676;DHT22;12799;53.690;10.114;2022-09-03T12:51:01;27.10;98.30
24676;DHT22;12799;53.690;10.114;2022-09-03T12:53:03;27.10;97.80
24676;DHT22;12799;53.690;10.114;2022-09-03T12:55:11;27.10;97.90
24676;DHT22;12799;53.690;10.114;2022-09-03T12:57:19;27.00;97.50
24676;DHT22;12799;53.690;10.114;2022-09-03T12:59:24;27.10;97.80
24676;DHT22;12799;53.690;10.114;2022-09-03T13:01:31;27.20;97.80
24676;DHT22;12799;53.690;10.114;2022-09-03T13:03:41;27.30;97.90
24676;DHT22;12799;53.690;10.114;2022-09-03T13:05:50;27.50;98.60
24676;DHT22;12799;53.690;10.114;2022-09-03T13:07:56;27.70;98.70